sensor_id;sensor_type;location;lat;lon;timestamp;P1;durP1;ratioP1;P2;durP2;ratioP2
56037;SDS011;41907;47.848;9.000;2023-10-31T00:00:28;4.75;;;2.95;;
56037;SDS011;41907;47.848;9.000;2023-10-31T00:02:54;4.32;;;3.58;;
56037;SDS011;41907;47.848;9.000;2023-10-31T00:05:19;8.07;;;5.32;;
56037;SDS011;41907;47.848;9.000;2023-10-31T00:07:44;9.63;;;6.45;;
56037;SDS011;41907;47.848;9.000;2023-10-31T00:10:10;8.27;;;6.90;;
56037;SDS011;41907;47.848;9.000;2023-10-31T00:12:35;18.40;;;11.55;;
56037;SDS011;41907;47.848;9.000;2023-10-31T00:15:00;12.55;;;8.43;;
56037;SDS011;41907;47.848;9.000;2023-10-31T00:17:26;7.65;;;4.05;;
56037;SDS011;41907;47.848;9.000;2023-10-31T00:19:51;12.23;;;8.93;;
56037;SDS011;41907;47.848;9.000;2023-10-31T00:22:16;18.95;;;13.02;;
56037;SDS011;41907;47.848;9.000;2023-10-31T00:24:42;31.58;;;19.90;;
56037;SDS011;41907;47.848;9.000;2023-10-31T00:27:08;26.23;;;19.20;;
56037;SDS011;41907;47.848;9.000;2023-10-31T00:29:33;11.85;;;8.02;;
56037;SDS011;41907;47.848;9.000;2023-10-31T00:31:58;20.83;;;12.00;;
56037;SDS011;41907;47.848;9.000;2023-10-31T00:34:24;12.27;;;7.22;;
56037;SDS011;41907;47.848;9.000;2023-10-31T00:36:49;9.07;;;4.60;;
56037;SDS011;41907;47.848;9.000;2023-10-31T00:39:14;8.80;;;6.50;;
56037;SDS011;41907;47.848;9.000;2023-10-31T00:41:43;6.15;;;4.57;;
56037;SDS011;41907;47.848;9.000;2023-10-31T00:44:10;9.82;;;5.88;;
56037;SDS011;41907;47.848;9.000;2023-10-31T00:46:35;11.45;;;8.50;;
56037;SDS011;41907;47.848;9.000;2023-10-31T00:49:01;11.65;;;6.50;;
56037;SDS011;41907;47.848;9.000;2023-10-31T00:51:26;7.03;;;4.25;;
56037;SDS011;41907;47.848;9.000;2023-10-31T00:53:52;7.68;;;3.45;;
56037;SDS011;41907;47.848;9.000;2023-10-31T00:56:17;10.02;;;5.68;;
56037;SDS011;41907;47.848;9.000;2023-10-31T00:58:42;9.43;;;5.22;;
56037;SDS011;41907;47.848;9.000;2023-10-31T01:01:08;22.00;;;14.60;;
56037;SDS011;41907;47.848;9.000;2023-10-31T01:03:33;18.13;;;10.20;;
56037;SDS011;41907;47.848;9.000;2023-10-31T01:05:58;23.85;;;13.10;;
56037;SDS011;41907;47.848;9.000;2023-10-31T01:08:24;21.55;;;8.88;;
56037;SDS011;41907;47.848;9.000;2023-10-31T01:10:49;18.85;;;6.93;;
56037;SDS011;41907;47.848;9.000;2023-10-31T01:13:15;6.70;;;4.30;;
56037;SDS011;41907;47.848;9.000;2023-10-31T01:15:40;4.45;;;1.90;;
56037;SDS011;41907;47.848;9.000;2023-10-31T01:18:05;2.70;;;1.60;;
56037;SDS011;41907;47.848;9.000;2023-10-31T01:20:31;3.53;;;2.75;;
56037;SDS011;41907;47.848;9.000;2023-10-31T01:22:56;14.75;;;10.93;;
56037;SDS011;41907;47.848;9.000;2023-10-31T01:25:22;11.43;;;9.25;;
56037;SDS011;41907;47.848;9.000;2023-10-31T01:27:47;18.83;;;14.80;;
56037;SDS011;41907;47.848;9.000;2023-10-31T01:30:12;15.73;;;11.90;;
56037;SDS011;41907;47.848;9.000;2023-10-31T01:32:38;8.88;;;5.20;;
56037;SDS011;41907;47.848;9.000;2023-10-31T01:35:04;4.47;;;2.70;;
56037;SDS011;41907;47.848;9.000;2023-10-31T01:37:29;8.32;;;3.63;;
56037;SDS011;41907;47.848;9.000;2023-10-31T01:39:55;12.65;;;10.65;;
56037;SDS011;41907;47.848;9.000;2023-10-31T01:42:20;17.08;;;12.75;;
56037;SDS011;41907;47.848;9.000;2023-10-31T01:44:46;12.85;;;6.78;;
56037;SDS011;41907;47.848;9.000;2023-10-31T01:47:11;10.30;;;5.95;;
56037;SDS011;41907;47.848;9.000;2023-10-31T01:49:36;7.32;;;3.75;;
56037;SDS011;41907;47.848;9.000;2023-10-31T01:52:03;10.00;;;4.90;;
56037;SDS011;41907;47.848;9.000;2023-10-31T01:54:30;5.32;;;2.97;;
56037;SDS011;41907;47.848;9.000;2023-10-31T01:56:57;3.67;;;1.83;;
56037;SDS011;41907;47.848;9.000;2023-10-31T01:59:26;1.92;;;1.60;;
56037;SDS011;41907;47.848;9.000;2023-10-31T02:01:52;3.30;;;2.15;;
56037;SDS011;41907;47.848;9.000;2023-10-31T02:04:19;5.20;;;2.45;;
56037;SDS011;41907;47.848;9.000;2023-10-31T02:06:45;3.33;;;2.10;;
56037;SDS011;41907;47.848;9.000;2023-10-31T02:09:10;2.72;;;1.80;;
56037;SDS011;41907;47.848;9.000;2023-10-31T02:11:36;1.90;;;0.90;;
56037;SDS011;41907;47.848;9.000;2023-10-31T02:14:02;10.05;;;2.10;;
56037;SDS011;41907;47.848;9.000;2023-10-31T02:16:27;4.10;;;1.98;;
56037;SDS011;41907;47.848;9.000;2023-10-31T02:18:53;3.45;;;1.42;;
56037;SDS011;41907;47.848;9.000;2023-10-31T02:21:18;2.65;;;1.17;;
56037;SDS011;41907;47.848;9.000;2023-10-31T02:23:58;4.80;;;1.00;;
56037;SDS011;41907;47.848;9.000;2023-10-31T02:26:28;4.22;;;1.60;;
56037;SDS011;41907;47.848;9.000;2023-10-31T02:28:54;3.63;;;1.60;;
56037;SDS011;41907;47.848;9.000;2023-10-31T02:31:20;2.05;;;1.00;;
56037;SDS011;41907;47.848;9.000;2023-10-31T02:33:46;2.45;;;0.80;;
56037;SDS011;41907;47.848;9.000;2023-10-31T02:36:11;2.40;;;1.23;;
56037;SDS011;41907;47.848;9.000;2023-10-31T02:38:36;5.15;;;2.10;;
56037;SDS011;41907;47.848;9.000;2023-10-31T02:41:01;27.52;;;24.30;;
56037;SDS011;41907;47.848;9.000;2023-10-31T02:43:27;17.85;;;13.95;;
56037;SDS011;41907;47.848;9.000;2023-10-31T02:45:52;30.83;;;25.38;;
56037;SDS011;41907;47.848;9.000;2023-10-31T02:48:18;21.38;;;19.27;;
56037;SDS011;41907;47.848;9.000;2023-10-31T02:50:43;18.35;;;16.33;;
56037;SDS011;41907;47.848;9.000;2023-10-31T02:53:09;11.65;;;9.57;;
56037;SDS011;41907;47.848;9.000;2023-10-31T02:55:35;19.95;;;16.55;;
56037;SDS011;41907;47.848;9.000;2023-10-31T02:58:00;13.35;;;8.02;;
56037;SDS011;41907;47.848;9.000;2023-10-31T03:00:25;17.25;;;9.43;;
56037;SDS011;41907;47.848;9.000;2023-10-31T03:02:51;10.52;;;5.60;;
56037;SDS011;41907;47.848;9.000;2023-10-31T03:05:17;9.55;;;5.80;;
56037;SDS011;41907;47.848;9.000;2023-10-31T03:07:42;6.75;;;3.55;;
56037;SDS011;41907;47.848;9.000;2023-10-31T03:10:08;5.43;;;2.40;;
56037;SDS011;41907;47.848;9.000;2023-10-31T03:12:34;5.88;;;5.18;;
56037;SDS011;41907;47.848;9.000;2023-10-31T03:14:59;11.55;;;9.80;;
56037;SDS011;41907;47.848;9.000;2023-10-31T03:17:24;14.10;;;12.40;;
56037;SDS011;41907;47.848;9.000;2023-10-31T03:19:50;13.55;;;10.90;;
56037;SDS011;41907;47.848;9.000;2023-10-31T03:22:15;12.20;;;9.15;;
56037;SDS011;41907;47.848;9.000;2023-10-31T03:24:41;5.10;;;3.83;;
56037;SDS011;41907;47.848;9.000;2023-10-31T03:27:06;4.30;;;2.10;;
56037;SDS011;41907;47.848;9.000;2023-10-31T03:29:31;10.90;;;6.88;;
56037;SDS011;41907;47.848;9.000;2023-10-31T03:31:57;6.75;;;4.95;;
56037;SDS011;41907;47.848;9.000;2023-10-31T03:34:22;4.90;;;3.53;;
56037;SDS011;41907;47.848;9.000;2023-10-31T03:36:47;1.95;;;0.73;;
56037;SDS011;41907;47.848;9.000;2023-10-31T03:39:13;16.42;;;13.90;;
56037;SDS011;41907;47.848;9.000;2023-10-31T03:41:38;6.30;;;5.13;;
56037;SDS011;41907;47.848;9.000;2023-10-31T03:44:04;9.35;;;6.00;;
56037;SDS011;41907;47.848;9.000;2023-10-31T03:46:29;4.78;;;4.03;;
56037;SDS011;41907;47.848;9.000;2023-10-31T03:48:55;6.03;;;4.03;;
56037;SDS011;41907;47.848;9.000;2023-10-31T03:51:20;6.82;;;3.63;;
56037;SDS011;41907;47.848;9.000;2023-10-31T03:53:46;4.88;;;2.05;;
56037;SDS011;41907;47.848;9.000;2023-10-31T03:56:11;4.60;;;2.10;;
56037;SDS011;41907;47.848;9.000;2023-10-31T03:58:36;4.50;;;1.80;;
56037;SDS011;41907;47.848;9.000;2023-10-31T04:01:02;4.32;;;2.70;;
56037;SDS011;41907;47.848;9.000;2023-10-31T04:03:27;4.68;;;2.17;;
56037;SDS011;41907;47.848;9.000;2023-10-31T04:05:52;12.20;;;6.57;;
56037;SDS011;41907;47.848;9.000;2023-10-31T04:08:18;20.25;;;17.30;;
56037;SDS011;41907;47.848;9.000;2023-10-31T04:10:43;25.00;;;19.63;;
56037;SDS011;41907;47.848;9.000;2023-10-31T04:13:09;46.17;;;30.40;;
56037;SDS011;41907;47.848;9.000;2023-10-31T04:15:34;31.98;;;21.90;;
56037;SDS011;41907;47.848;9.000;2023-10-31T04:18:00;30.65;;;20.73;;
56037;SDS011;41907;47.848;9.000;2023-10-31T04:20:25;47.53;;;34.08;;
56037;SDS011;41907;47.848;9.000;2023-10-31T04:22:50;36.88;;;26.48;;
56037;SDS011;41907;47.848;9.000;2023-10-31T04:25:16;44.72;;;30.38;;
56037;SDS011;41907;47.848;9.000;2023-10-31T04:27:41;33.80;;;17.05;;
56037;SDS011;41907;47.848;9.000;2023-10-31T04:30:07;31.92;;;20.50;;
56037;SDS011;41907;47.848;9.000;2023-10-31T04:32:32;19.08;;;11.90;;
56037;SDS011;41907;47.848;9.000;2023-10-31T04:34:57;16.20;;;9.25;;
56037;SDS011;41907;47.848;9.000;2023-10-31T04:37:23;12.82;;;6.43;;
56037;SDS011;41907;47.848;9.000;2023-10-31T04:39:48;11.68;;;8.02;;
56037;SDS011;41907;47.848;9.000;2023-10-31T04:42:14;25.15;;;18.63;;
56037;SDS011;41907;47.848;9.000;2023-10-31T04:44:39;31.52;;;20.77;;
56037;SDS011;41907;47.848;9.000;2023-10-31T04:47:04;12.07;;;10.27;;
56037;SDS011;41907;47.848;9.000;2023-10-31T04:49:30;2.78;;;1.27;;
56037;SDS011;41907;47.848;9.000;2023-10-31T04:51:55;1.00;;;0.52;;
56037;SDS011;41907;47.848;9.000;2023-10-31T04:54:20;1.73;;;0.95;;
56037;SDS011;41907;47.848;9.000;2023-10-31T04:56:47;17.95;;;9.25;;
56037;SDS011;41907;47.848;9.000;2023-10-31T04:59:12;8.88;;;5.95;;
56037;SDS011;41907;47.848;9.000;2023-10-31T05:01:37;2.47;;;1.10;;
56037;SDS011;41907;47.848;9.000;2023-10-31T05:04:03;3.17;;;0.60;;
56037;SDS011;41907;47.848;9.000;2023-10-31T05:06:28;2.33;;;0.30;;
56037;SDS011;41907;47.848;9.000;2023-10-31T05:08:53;0.98;;;0.40;;
56037;SDS011;41907;47.848;9.000;2023-10-31T05:11:19;0.57;;;0.40;;
56037;SDS011;41907;47.848;9.000;2023-10-31T05:13:44;2.63;;;1.55;;
56037;SDS011;41907;47.848;9.000;2023-10-31T05:16:10;1.60;;;0.77;;
56037;SDS011;41907;47.848;9.000;2023-10-31T05:18:36;1.52;;;0.60;;
56037;SDS011;41907;47.848;9.000;2023-10-31T05:21:02;0.98;;;0.40;;
56037;SDS011;41907;47.848;9.000;2023-10-31T05:23:28;2.33;;;0.82;;
56037;SDS011;41907;47.848;9.000;2023-10-31T05:25:54;1.98;;;0.60;;
56037;SDS011;41907;47.848;9.000;2023-10-31T05:28:20;2.63;;;0.60;;
56037;SDS011;41907;47.848;9.000;2023-10-31T05:30:46;3.65;;;0.90;;
56037;SDS011;41907;47.848;9.000;2023-10-31T05:33:11;1.63;;;0.60;;
56037;SDS011;41907;47.848;9.000;2023-10-31T05:35:36;2.58;;;0.68;;
56037;SDS011;41907;47.848;9.000;2023-10-31T05:38:02;2.42;;;0.50;;
56037;SDS011;41907;47.848;9.000;2023-10-31T05:40:27;2.55;;;0.70;;
56037;SDS011;41907;47.848;9.000;2023-10-31T05:42:54;1.30;;;0.70;;
56037;SDS011;41907;47.848;9.000;2023-10-31T05:45:19;8.27;;;1.50;;
56037;SDS011;41907;47.848;9.000;2023-10-31T05:47:45;7.65;;;4.85;;
56037;SDS011;41907;47.848;9.000;2023-10-31T05:50:10;5.60;;;3.03;;
56037;SDS011;41907;47.848;9.000;2023-10-31T05:52:36;4.43;;;1.27;;
56037;SDS011;41907;47.848;9.000;2023-10-31T05:55:01;5.00;;;1.55;;
56037;SDS011;41907;47.848;9.000;2023-10-31T05:57:27;2.38;;;1.20;;
56037;SDS011;41907;47.848;9.000;2023-10-31T05:59:52;5.13;;;2.00;;
56037;SDS011;41907;47.848;9.000;2023-10-31T06:02:18;3.67;;;2.10;;
56037;SDS011;41907;47.848;9.000;2023-10-31T06:04:43;1.80;;;1.40;;
56037;SDS011;41907;47.848;9.000;2023-10-31T06:07:10;4.50;;;1.40;;
56037;SDS011;41907;47.848;9.000;2023-10-31T06:09:36;7.95;;;1.42;;
56037;SDS011;41907;47.848;9.000;2023-10-31T06:12:01;4.00;;;2.42;;
56037;SDS011;41907;47.848;9.000;2023-10-31T06:14:27;8.32;;;3.40;;
56037;SDS011;41907;47.848;9.000;2023-10-31T06:16:52;8.02;;;3.83;;
56037;SDS011;41907;47.848;9.000;2023-10-31T06:19:18;4.53;;;3.10;;
56037;SDS011;41907;47.848;9.000;2023-10-31T06:21:43;3.45;;;2.35;;
56037;SDS011;41907;47.848;9.000;2023-10-31T06:24:09;6.90;;;2.00;;
56037;SDS011;41907;47.848;9.000;2023-10-31T06:26:35;2.33;;;0.98;;
56037;SDS011;41907;47.848;9.000;2023-10-31T06:29:00;2.50;;;1.08;;
56037;SDS011;41907;47.848;9.000;2023-10-31T06:31:26;6.38;;;2.80;;
56037;SDS011;41907;47.848;9.000;2023-10-31T06:33:51;3.47;;;2.22;;
56037;SDS011;41907;47.848;9.000;2023-10-31T06:36:16;8.18;;;4.65;;
56037;SDS011;41907;47.848;9.000;2023-10-31T06:38:42;4.53;;;3.22;;
56037;SDS011;41907;47.848;9.000;2023-10-31T06:41:07;8.65;;;4.72;;
56037;SDS011;41907;47.848;9.000;2023-10-31T06:43:33;8.70;;;3.92;;
56037;SDS011;41907;47.848;9.000;2023-10-31T06:45:59;5.70;;;2.55;;
56037;SDS011;41907;47.848;9.000;2023-10-31T06:48:25;2.92;;;2.08;;
56037;SDS011;41907;47.848;9.000;2023-10-31T06:50:51;5.40;;;2.70;;
56037;SDS011;41907;47.848;9.000;2023-10-31T06:53:16;4.57;;;3.70;;
56037;SDS011;41907;47.848;9.000;2023-10-31T06:55:41;6.32;;;3.75;;
56037;SDS011;41907;47.848;9.000;2023-10-31T06:58:07;6.38;;;3.88;;
56037;SDS011;41907;47.848;9.000;2023-10-31T07:00:32;8.07;;;3.50;;
56037;SDS011;41907;47.848;9.000;2023-10-31T07:02:57;5.57;;;3.75;;
56037;SDS011;41907;47.848;9.000;2023-10-31T07:05:24;5.22;;;3.40;;
56037;SDS011;41907;47.848;9.000;2023-10-31T07:07:49;6.65;;;3.65;;
56037;SDS011;41907;47.848;9.000;2023-10-31T07:10:15;6.82;;;3.30;;
56037;SDS011;41907;47.848;9.000;2023-10-31T07:12:40;5.68;;;3.83;;
56037;SDS011;41907;47.848;9.000;2023-10-31T07:15:06;5.25;;;3.10;;
56037;SDS011;41907;47.848;9.000;2023-10-31T07:17:31;6.30;;;2.88;;
56037;SDS011;41907;47.848;9.000;2023-10-31T07:19:57;4.82;;;2.00;;
56037;SDS011;41907;47.848;9.000;2023-10-31T07:22:22;8.27;;;4.22;;
56037;SDS011;41907;47.848;9.000;2023-10-31T07:24:49;15.25;;;7.45;;
56037;SDS011;41907;47.848;9.000;2023-10-31T07:27:18;26.00;;;13.43;;
56037;SDS011;41907;47.848;9.000;2023-10-31T07:29:43;5.25;;;2.40;;
56037;SDS011;41907;47.848;9.000;2023-10-31T07:32:09;4.20;;;1.85;;
56037;SDS011;41907;47.848;9.000;2023-10-31T07:34:34;7.45;;;3.13;;
56037;SDS011;41907;47.848;9.000;2023-10-31T07:37:00;19.15;;;14.88;;
56037;SDS011;41907;47.848;9.000;2023-10-31T07:39:25;15.48;;;10.32;;
56037;SDS011;41907;47.848;9.000;2023-10-31T07:41:51;16.15;;;14.05;;
56037;SDS011;41907;47.848;9.000;2023-10-31T07:44:16;16.58;;;11.93;;
56037;SDS011;41907;47.848;9.000;2023-10-31T07:46:42;15.45;;;11.82;;
56037;SDS011;41907;47.848;9.000;2023-10-31T07:49:07;27.60;;;20.20;;
56037;SDS011;41907;47.848;9.000;2023-10-31T07:51:32;23.38;;;19.15;;
56037;SDS011;41907;47.848;9.000;2023-10-31T07:53:58;13.13;;;9.73;;
56037;SDS011;41907;47.848;9.000;2023-10-31T07:56:24;10.80;;;9.10;;
56037;SDS011;41907;47.848;9.000;2023-10-31T07:58:50;19.13;;;15.68;;
56037;SDS011;41907;47.848;9.000;2023-10-31T08:01:19;25.35;;;21.55;;
56037;SDS011;41907;47.848;9.000;2023-10-31T08:03:45;18.95;;;15.43;;
56037;SDS011;41907;47.848;9.000;2023-10-31T08:06:12;22.05;;;18.10;;
56037;SDS011;41907;47.848;9.000;2023-10-31T08:08:37;19.15;;;13.13;;
56037;SDS011;41907;47.848;9.000;2023-10-31T08:11:02;9.38;;;8.48;;
56037;SDS011;41907;47.848;9.000;2023-10-31T08:13:29;7.63;;;6.20;;
56037;SDS011;41907;47.848;9.000;2023-10-31T08:15:54;12.85;;;11.50;;
56037;SDS011;41907;47.848;9.000;2023-10-31T08:18:21;11.25;;;10.10;;
56037;SDS011;41907;47.848;9.000;2023-10-31T08:20:48;14.43;;;12.98;;
56037;SDS011;41907;47.848;9.000;2023-10-31T08:23:15;17.65;;;13.02;;
56037;SDS011;41907;47.848;9.000;2023-10-31T08:25:41;10.73;;;8.90;;
56037;SDS011;41907;47.848;9.000;2023-10-31T08:28:06;16.95;;;7.40;;
56037;SDS011;41907;47.848;9.000;2023-10-31T08:30:32;12.90;;;9.18;;
56037;SDS011;41907;47.848;9.000;2023-10-31T08:32:58;16.05;;;13.60;;
56037;SDS011;41907;47.848;9.000;2023-10-31T08:35:23;17.48;;;14.20;;
56037;SDS011;41907;47.848;9.000;2023-10-31T08:37:48;14.55;;;9.80;;
56037;SDS011;41907;47.848;9.000;2023-10-31T08:40:14;9.18;;;5.60;;
56037;SDS011;41907;47.848;9.000;2023-10-31T08:42:39;11.65;;;7.38;;
56037;SDS011;41907;47.848;9.000;2023-10-31T08:45:04;15.10;;;13.30;;
56037;SDS011;41907;47.848;9.000;2023-10-31T08:47:30;22.98;;;20.60;;
56037;SDS011;41907;47.848;9.000;2023-10-31T08:49:55;8.20;;;7.15;;
56037;SDS011;41907;47.848;9.000;2023-10-31T08:52:21;14.68;;;13.00;;
56037;SDS011;41907;47.848;9.000;2023-10-31T08:54:47;33.35;;;29.90;;
56037;SDS011;41907;47.848;9.000;2023-10-31T08:57:12;25.08;;;22.20;;
56037;SDS011;41907;47.848;9.000;2023-10-31T08:59:38;13.77;;;11.13;;
56037;SDS011;41907;47.848;9.000;2023-10-31T09:02:04;17.02;;;13.23;;
56037;SDS011;41907;47.848;9.000;2023-10-31T09:04:29;13.32;;;9.27;;
56037;SDS011;41907;47.848;9.000;2023-10-31T09:06:55;9.43;;;3.78;;
56037;SDS011;41907;47.848;9.000;2023-10-31T09:09:20;8.93;;;7.20;;
56037;SDS011;41907;47.848;9.000;2023-10-31T09:11:45;13.10;;;11.80;;
56037;SDS011;41907;47.848;9.000;2023-10-31T09:14:11;20.15;;;14.27;;
56037;SDS011;41907;47.848;9.000;2023-10-31T09:16:36;15.38;;;5.75;;
56037;SDS011;41907;47.848;9.000;2023-10-31T09:19:02;11.57;;;4.55;;
56037;SDS011;41907;47.848;9.000;2023-10-31T09:21:27;7.72;;;3.95;;
56037;SDS011;41907;47.848;9.000;2023-10-31T09:23:52;30.10;;;12.82;;
56037;SDS011;41907;47.848;9.000;2023-10-31T09:26:18;22.98;;;8.57;;
56037;SDS011;41907;47.848;9.000;2023-10-31T09:28:43;6.03;;;2.67;;
56037;SDS011;41907;47.848;9.000;2023-10-31T09:31:15;4.55;;;2.58;;
56037;SDS011;41907;47.848;9.000;2023-10-31T09:33:44;9.57;;;2.42;;
56037;SDS011;41907;47.848;9.000;2023-10-31T09:36:10;4.68;;;1.90;;
56037;SDS011;41907;47.848;9.000;2023-10-31T09:38:35;9.43;;;3.83;;
56037;SDS011;41907;47.848;9.000;2023-10-31T09:41:01;6.70;;;3.50;;
56037;SDS011;41907;47.848;9.000;2023-10-31T09:43:26;9.70;;;4.57;;
56037;SDS011;41907;47.848;9.000;2023-10-31T09:45:52;13.43;;;5.95;;
56037;SDS011;41907;47.848;9.000;2023-10-31T09:48:18;7.85;;;3.63;;
56037;SDS011;41907;47.848;9.000;2023-10-31T09:50:44;5.63;;;2.33;;
56037;SDS011;41907;47.848;9.000;2023-10-31T09:53:11;4.65;;;1.90;;
56037;SDS011;41907;47.848;9.000;2023-10-31T09:55:39;4.57;;;2.95;;
56037;SDS011;41907;47.848;9.000;2023-10-31T09:58:04;3.17;;;2.03;;
56037;SDS011;41907;47.848;9.000;2023-10-31T10:00:30;5.85;;;3.33;;
56037;SDS011;41907;47.848;9.000;2023-10-31T10:02:55;5.70;;;2.80;;
56037;SDS011;41907;47.848;9.000;2023-10-31T10:05:21;6.95;;;2.60;;
56037;SDS011;41907;47.848;9.000;2023-10-31T10:07:48;3.03;;;1.67;;
56037;SDS011;41907;47.848;9.000;2023-10-31T10:10:13;6.72;;;2.90;;
56037;SDS011;41907;47.848;9.000;2023-10-31T10:12:41;9.30;;;6.38;;
56037;SDS011;41907;47.848;9.000;2023-10-31T10:15:07;14.30;;;4.85;;
56037;SDS011;41907;47.848;9.000;2023-10-31T10:17:33;9.20;;;4.45;;
56037;SDS011;41907;47.848;9.000;2023-10-31T10:20:05;7.55;;;4.65;;
56037;SDS011;41907;47.848;9.000;2023-10-31T10:22:35;11.60;;;6.15;;
56037;SDS011;41907;47.848;9.000;2023-10-31T10:25:03;8.98;;;6.00;;
56037;SDS011;41907;47.848;9.000;2023-10-31T10:27:30;16.45;;;8.95;;
56037;SDS011;41907;47.848;9.000;2023-10-31T10:29:55;6.65;;;4.32;;
56037;SDS011;41907;47.848;9.000;2023-10-31T10:32:20;11.68;;;6.50;;
56037;SDS011;41907;47.848;9.000;2023-10-31T10:34:46;9.32;;;5.68;;
56037;SDS011;41907;47.848;9.000;2023-10-31T10:37:11;5.32;;;3.03;;
56037;SDS011;41907;47.848;9.000;2023-10-31T10:39:38;6.85;;;3.97;;
56037;SDS011;41907;47.848;9.000;2023-10-31T10:42:07;4.35;;;3.47;;
56037;SDS011;41907;47.848;9.000;2023-10-31T10:44:36;4.25;;;3.40;;
56037;SDS011;41907;47.848;9.000;2023-10-31T10:47:03;7.70;;;2.97;;
56037;SDS011;41907;47.848;9.000;2023-10-31T10:49:34;8.52;;;3.42;;
56037;SDS011;41907;47.848;9.000;2023-10-31T10:52:03;4.60;;;2.60;;
56037;SDS011;41907;47.848;9.000;2023-10-31T10:54:35;9.57;;;5.30;;
56037;SDS011;41907;47.848;9.000;2023-10-31T10:57:14;3.45;;;1.45;;
56037;SDS011;41907;47.848;9.000;2023-10-31T10:59:48;3.83;;;1.70;;
56037;SDS011;41907;47.848;9.000;2023-10-31T11:02:17;3.88;;;2.40;;
56037;SDS011;41907;47.848;9.000;2023-10-31T11:04:43;3.97;;;2.13;;
56037;SDS011;41907;47.848;9.000;2023-10-31T11:07:09;2.95;;;2.08;;
56037;SDS011;41907;47.848;9.000;2023-10-31T11:09:35;5.88;;;2.40;;
56037;SDS011;41907;47.848;9.000;2023-10-31T11:12:02;2.83;;;1.15;;
56037;SDS011;41907;47.848;9.000;2023-10-31T11:14:28;7.00;;;3.83;;
56037;SDS011;41907;47.848;9.000;2023-10-31T11:16:56;5.25;;;2.28;;
56037;SDS011;41907;47.848;9.000;2023-10-31T11:19:27;6.68;;;4.22;;
56037;SDS011;41907;47.848;9.000;2023-10-31T11:22:02;6.85;;;2.53;;
56037;SDS011;41907;47.848;9.000;2023-10-31T11:24:33;2.30;;;0.80;;
56037;SDS011;41907;47.848;9.000;2023-10-31T11:27:02;8.18;;;5.15;;
56037;SDS011;41907;47.848;9.000;2023-10-31T11:29:30;4.93;;;1.80;;
56037;SDS011;41907;47.848;9.000;2023-10-31T11:31:56;4.43;;;0.75;;
56037;SDS011;41907;47.848;9.000;2023-10-31T11:34:22;4.28;;;3.33;;
56037;SDS011;41907;47.848;9.000;2023-10-31T11:36:48;4.88;;;3.00;;
56037;SDS011;41907;47.848;9.000;2023-10-31T11:39:17;4.93;;;2.50;;
56037;SDS011;41907;47.848;9.000;2023-10-31T11:41:49;3.53;;;0.80;;
56037;SDS011;41907;47.848;9.000;2023-10-31T11:44:16;2.65;;;1.27;;
56037;SDS011;41907;47.848;9.000;2023-10-31T11:46:42;2.88;;;1.35;;
56037;SDS011;41907;47.848;9.000;2023-10-31T11:49:07;2.50;;;1.08;;
56037;SDS011;41907;47.848;9.000;2023-10-31T11:51:33;2.90;;;0.90;;
56037;SDS011;41907;47.848;9.000;2023-10-31T11:53:59;7.32;;;2.08;;
56037;SDS011;41907;47.848;9.000;2023-10-31T11:56:26;4.28;;;2.83;;
56037;SDS011;41907;47.848;9.000;2023-10-31T11:58:55;4.25;;;2.00;;
56037;SDS011;41907;47.848;9.000;2023-10-31T12:01:22;3.25;;;1.92;;
56037;SDS011;41907;47.848;9.000;2023-10-31T12:03:47;6.05;;;2.63;;
56037;SDS011;41907;47.848;9.000;2023-10-31T12:06:13;8.27;;;4.28;;
56037;SDS011;41907;47.848;9.000;2023-10-31T12:08:42;13.23;;;6.80;;
56037;SDS011;41907;47.848;9.000;2023-10-31T12:11:12;4.95;;;3.20;;
56037;SDS011;41907;47.848;9.000;2023-10-31T12:13:41;9.95;;;4.60;;
56037;SDS011;41907;47.848;9.000;2023-10-31T12:16:16;5.78;;;2.85;;
56037;SDS011;41907;47.848;9.000;2023-10-31T12:18:42;4.25;;;1.58;;
56037;SDS011;41907;47.848;9.000;2023-10-31T12:21:07;1.98;;;0.73;;
56037;SDS011;41907;47.848;9.000;2023-10-31T12:23:33;0.60;;;0.60;;
56037;SDS011;41907;47.848;9.000;2023-10-31T12:25:59;2.15;;;0.55;;
56037;SDS011;41907;47.848;9.000;2023-10-31T12:28:24;1.00;;;0.57;;
56037;SDS011;41907;47.848;9.000;2023-10-31T12:30:52;4.07;;;0.95;;
56037;SDS011;41907;47.848;9.000;2023-10-31T12:33:25;2.88;;;1.20;;
56037;SDS011;41907;47.848;9.000;2023-10-31T12:35:58;1.40;;;0.77;;
56037;SDS011;41907;47.848;9.000;2023-10-31T12:38:25;3.63;;;0.95;;
56037;SDS011;41907;47.848;9.000;2023-10-31T12:40:50;3.53;;;2.20;;
56037;SDS011;41907;47.848;9.000;2023-10-31T12:43:16;3.17;;;1.95;;
56037;SDS011;41907;47.848;9.000;2023-10-31T12:45:42;3.08;;;1.88;;
56037;SDS011;41907;47.848;9.000;2023-10-31T12:48:08;2.15;;;1.00;;
56037;SDS011;41907;47.848;9.000;2023-10-31T12:50:35;3.17;;;0.63;;
56037;SDS011;41907;47.848;9.000;2023-10-31T12:53:07;1.27;;;0.40;;
56037;SDS011;41907;47.848;9.000;2023-10-31T12:55:40;2.90;;;0.90;;
56037;SDS011;41907;47.848;9.000;2023-10-31T12:58:07;2.65;;;0.80;;
56037;SDS011;41907;47.848;9.000;2023-10-31T13:00:35;4.35;;;2.08;;
56037;SDS011;41907;47.848;9.000;2023-10-31T13:05:28;2.00;;;0.80;;
56037;SDS011;41907;47.848;9.000;2023-10-31T13:07:54;3.80;;;2.10;;
56037;SDS011;41907;47.848;9.000;2023-10-31T13:10:22;5.32;;;2.42;;
56037;SDS011;41907;47.848;9.000;2023-10-31T13:12:49;7.10;;;2.47;;
56037;SDS011;41907;47.848;9.000;2023-10-31T13:15:15;5.10;;;1.40;;
56037;SDS011;41907;47.848;9.000;2023-10-31T13:17:43;6.53;;;1.90;;
56037;SDS011;41907;47.848;9.000;2023-10-31T13:20:09;2.67;;;1.33;;
56037;SDS011;41907;47.848;9.000;2023-10-31T13:22:36;4.32;;;1.75;;
56037;SDS011;41907;47.848;9.000;2023-10-31T13:25:02;3.38;;;1.05;;
56037;SDS011;41907;47.848;9.000;2023-10-31T13:27:33;2.38;;;0.80;;
56037;SDS011;41907;47.848;9.000;2023-10-31T13:30:00;1.67;;;1.13;;
56037;SDS011;41907;47.848;9.000;2023-10-31T13:32:29;1.50;;;1.10;;
56037;SDS011;41907;47.848;9.000;2023-10-31T13:34:54;1.33;;;1.10;;
56037;SDS011;41907;47.848;9.000;2023-10-31T13:37:19;1.55;;;0.80;;
56037;SDS011;41907;47.848;9.000;2023-10-31T13:39:45;2.25;;;1.05;;
56037;SDS011;41907;47.848;9.000;2023-10-31T13:42:12;7.28;;;2.03;;
56037;SDS011;41907;47.848;9.000;2023-10-31T13:44:37;7.97;;;2.70;;
56037;SDS011;41907;47.848;9.000;2023-10-31T13:47:03;4.63;;;1.50;;
56037;SDS011;41907;47.848;9.000;2023-10-31T13:49:28;3.40;;;1.20;;
56037;SDS011;41907;47.848;9.000;2023-10-31T13:51:54;8.48;;;2.58;;
56037;SDS011;41907;47.848;9.000;2023-10-31T13:54:20;3.33;;;2.03;;
56037;SDS011;41907;47.848;9.000;2023-10-31T13:56:45;4.97;;;2.35;;
56037;SDS011;41907;47.848;9.000;2023-10-31T13:59:13;4.95;;;2.03;;
56037;SDS011;41907;47.848;9.000;2023-10-31T14:01:39;3.83;;;2.25;;
56037;SDS011;41907;47.848;9.000;2023-10-31T14:04:06;4.70;;;2.55;;
56037;SDS011;41907;47.848;9.000;2023-10-31T14:06:32;7.90;;;3.60;;
56037;SDS011;41907;47.848;9.000;2023-10-31T14:08:59;6.13;;;3.25;;
56037;SDS011;41907;47.848;9.000;2023-10-31T14:11:25;6.25;;;2.97;;
56037;SDS011;41907;47.848;9.000;2023-10-31T14:13:51;4.70;;;2.90;;
56037;SDS011;41907;47.848;9.000;2023-10-31T14:16:17;5.95;;;2.90;;
56037;SDS011;41907;47.848;9.000;2023-10-31T14:18:42;5.65;;;2.05;;
56037;SDS011;41907;47.848;9.000;2023-10-31T14:21:08;5.72;;;2.00;;
56037;SDS011;41907;47.848;9.000;2023-10-31T14:23:34;5.47;;;2.83;;
56037;SDS011;41907;47.848;9.000;2023-10-31T14:25:59;4.70;;;2.90;;
56037;SDS011;41907;47.848;9.000;2023-10-31T14:28:25;4.20;;;2.42;;
56037;SDS011;41907;47.848;9.000;2023-10-31T14:30:50;6.70;;;4.57;;
56037;SDS011;41907;47.848;9.000;2023-10-31T14:33:17;23.80;;;13.98;;
56037;SDS011;41907;47.848;9.000;2023-10-31T14:35:43;20.70;;;14.90;;